Time;durP1;ratioP1;P1;durP2;ratioP2;P2;SDS_P1;SDS_P2;PMS_P1;PMS_P2;Temp;Humidity;BMP_temperature;BMP_pressure;BME280_temperature;BME280_humidity;BME280_pressure;Samples;Min_cycle;Max_cycle;Signal;HPM_P1;HPM_P2
2022/05/20 00:02:05;;;;;;;9.02;2.45;;;;;;;11.68;54.29;102065.00;4961359;28;20087;-78
2022/05/20 00:04:31;;;;;;;4.68;1.83;;;;;;;11.48;54.62;102070.75;4948933;28;20039;-77
2022/05/20 00:06:56;;;;;;;10.10;2.45;;;;;;;11.57;54.25;102077.50;4961312;28;20406;-78
2022/05/20 00:09:22;;;;;;;7.13;2.05;;;;;;;11.09;55.59;102083.91;4974965;28;20289;-78
2022/05/20 00:11:47;;;;;;;5.57;2.03;;;;;;;10.87;56.06;102082.66;4971279;28;20038;-77
2022/05/20 00:14:13;;;;;;;3.50;2.00;;;;;;;11.03;56.00;102079.66;4946124;28;20043;-80
2022/05/20 00:16:39;;;;;;;8.60;2.08;;;;;;;11.21;55.19;102072.28;4963214;28;20059;-79
2022/05/20 00:19:07;;;;;;;4.75;1.80;;;;;;;10.86;56.31;102065.22;4941724;28;20054;-77
2022/05/20 00:21:33;;;;;;;6.85;3.40;;;;;;;11.10;55.24;102046.34;4963096;28;20023;-77
2022/05/20 00:23:59;;;;;;;4.03;2.25;;;;;;;10.91;55.85;102045.94;4957077;28;20062;-79
2022/05/20 00:26:25;;;;;;;5.75;2.80;;;;;;;10.88;55.72;102043.38;4964001;28;20488;-79
2022/05/20 00:28:53;;;;;;;2.05;1.40;;;;;;;11.10;55.25;102035.03;4962389;28;20125;-79
2022/05/20 00:31:21;;;;;;;3.55;1.67;;;;;;;11.03;55.44;102034.31;4949104;28;20073;-78
2022/05/20 00:33:47;;;;;;;10.63;2.42;;;;;;;11.13;55.08;102040.19;4965534;28;20626;-79
2022/05/20 00:36:13;;;;;;;3.85;1.55;;;;;;;10.89;55.45;102052.97;4958779;28;20514;-79
2022/05/20 00:38:39;;;;;;;3.60;1.20;;;;;;;11.03;55.35;102057.88;4957607;28;20103;-78
2022/05/20 00:41:07;;;;;;;3.22;1.05;;;;;;;11.00;54.88;102056.19;4941684;28;20118;-79
2022/05/20 00:43:32;;;;;;;5.25;1.42;;;;;;;11.12;54.75;102059.41;4959796;28;20091;-76
2022/05/20 00:46:06;;;;;;;2.40;1.10;;;;;;;10.66;55.61;102052.56;4959187;28;20035;-80
2022/05/20 00:48:33;;;;;;;6.65;1.42;;;;;;;10.88;55.12;102052.97;4940585;28;20879;-78
2022/05/20 00:51:07;;;;;;;2.30;1.17;;;;;;;10.86;55.22;102052.16;4971387;28;20022;-77
2022/05/20 00:54:11;;;;;;;2.45;1.00;;;;;;;10.89;55.30;102063.41;4975279;28;20039;-79
2022/05/20 00:56:47;;;;;;;7.40;1.38;;;;;;;10.75;55.85;102063.69;4921683;28;20557;-78
2022/05/20 00:59:18;;;;;;;3.55;1.58;;;;;;;10.83;55.45;102060.94;4921766;28;20104;-78
2022/05/20 01:01:47;;;;;;;6.65;1.75;;;;;;;10.58;56.32;102060.56;4975076;28;20023;-78
2022/05/20 01:04:16;;;;;;;7.70;1.98;;;;;;;10.68;55.98;102066.47;4955417;28;20061;-77
2022/05/20 01:06:42;;;;;;;4.68;1.67;;;;;;;10.72;55.22;102071.59;4968067;28;20031;-80
2022/05/20 01:09:08;;;;;;;4.85;1.65;;;;;;;10.61;55.44;102068.34;4945595;28;20035;-78
2022/05/20 01:11:36;;;;;;;4.50;1.23;;;;;;;10.63;55.53;102067.41;4965174;28;20478;-76
2022/05/20 01:14:02;;;;;;;6.82;1.63;;;;;;;10.58;55.91;102060.56;4960100;28;20122;-78
2022/05/20 01:16:31;;;;;;;2.67;1.40;;;;;;;10.50;55.93;102063.34;4948248;28;20058;-79
2022/05/20 01:18:57;;;;;;;4.80;2.20;;;;;;;10.47;56.17;102066.03;4947265;28;20537;-78
2022/05/20 01:21:23;;;;;;;7.75;2.33;;;;;;;10.31;56.67;102077.69;4948514;28;20146;-80
2022/05/20 01:23:49;;;;;;;4.00;2.05;;;;;;;10.40;56.34;102077.50;4959404;28;20061;-80
2022/05/20 01:26:15;;;;;;;5.55;1.85;;;;;;;10.32;56.58;102079.41;4942832;28;20019;-80
2022/05/20 01:28:41;;;;;;;5.25;2.28;;;;;;;10.05;57.29;102075.56;4943333;28;20117;-79
2022/05/20 01:31:12;;;;;;;6.90;1.77;;;;;;;10.07;57.08;102079.88;4964224;28;20034;-77
2022/05/20 01:33:46;;;;;;;6.47;1.87;;;;;;;10.18;56.90;102072.69;4964651;28;20039;-78
2022/05/20 01:36:15;;;;;;;3.80;1.95;;;;;;;10.27;56.44;102076.03;4945701;28;20042;-78
2022/05/20 01:38:42;;;;;;;5.32;2.15;;;;;;;10.35;55.87;102081.97;4944358;28;20038;-78
2022/05/20 01:41:30;;;;;;;7.63;2.05;;;;;;;10.21;56.81;102088.31;4947933;28;20461;-79
2022/05/20 01:44:15;;;;;;;4.38;1.75;;;;;;;10.06;57.02;102088.59;4961806;28;20130;-80
2022/05/20 01:46:45;;;;;;;4.63;2.50;;;;;;;10.07;56.87;102082.47;4975305;28;20035;-77
2022/05/20 01:49:27;;;;;;;5.53;2.25;;;;;;;9.92;57.64;102085.38;4960347;28;20042;-79
2022/05/20 01:52:19;;;;;;;3.63;2.23;;;;;;;10.15;56.66;102085.81;4975094;28;20304;-80
2022/05/20 01:55:06;;;;;;;5.28;2.65;;;;;;;10.10;57.28;102089.41;4940036;28;20043;-78
2022/05/20 01:58:09;;;;;;;6.68;1.88;;;;;;;10.13;56.79;102086.75;4960847;28;20657;-78
2022/05/20 02:00:39;;;;;;;6.20;2.42;;;;;;;10.09;56.80;102095.53;4973598;28;20113;-79
2022/05/20 02:03:14;;;;;;;7.30;2.60;;;;;;;10.25;56.52;102098.69;4938436;28;20045;-78
2022/05/20 02:05:51;;;;;;;9.55;2.63;;;;;;;10.12;57.01;102083.25;4956476;28;20042;-78
2022/05/20 02:08:24;;;;;;;4.35;3.05;;;;;;;10.13;56.59;102095.44;4958612;28;20047;-78
2022/05/20 02:11:04;;;;;;;4.18;3.30;;;;;;;10.20;56.38;102090.97;4959393;28;20055;-78
2022/05/20 02:13:33;;;;;;;6.70;2.97;;;;;;;10.12;56.98;102083.25;4959883;28;20054;-79
2022/05/20 02:16:14;;;;;;;4.30;3.00;;;;;;;10.14;56.35;102091.91;4973741;28;20035;-78
2022/05/20 02:18:55;;;;;;;5.22;3.17;;;;;;;10.19;56.62;102082.25;4963451;28;20043;-78
2022/05/20 02:21:24;;;;;;;6.18;3.60;;;;;;;10.25;56.33;102090.88;4956093;28;20031;-78
2022/05/20 02:23:59;;;;;;;6.15;4.03;;;;;;;10.21;56.33;102083.09;4950051;28;20138;-78
2022/05/20 02:26:30;;;;;;;12.43;4.13;;;;;;;10.20;56.52;102077.91;4948212;28;20034;-78
2022/05/20 02:29:02;;;;;;;7.65;3.55;;;;;;;9.88;57.66;102083.69;4944488;28;20054;-77
2022/05/20 02:31:52;;;;;;;8.35;4.25;;;;;;;9.72;57.86;102081.34;4966618;28;20120;-78
2022/05/20 02:34:17;;;;;;;7.05;3.38;;;;;;;10.01;57.48;102085.19;4977979;28;20500;-78
2022/05/20 02:36:43;;;;;;;3.92;3.33;;;;;;;9.71;58.08;102086.59;4960336;28;20034;-78
2022/05/20 02:39:15;;;;;;;9.75;3.97;;;;;;;9.79;58.06;102085.59;4964457;28;20752;-79
2022/05/20 02:41:48;;;;;;;7.72;4.00;;;;;;;9.76;58.04;102077.78;4963037;28;20031;-78
2022/05/20 02:44:14;;;;;;;12.38;4.85;;;;;;;9.85;57.66;102076.78;4948122;28;20062;-79
2022/05/20 02:46:42;;;;;;;10.68;4.63;;;;;;;10.05;57.25;102068.59;4964775;28;20054;-78
2022/05/20 02:49:08;;;;;;;6.10;3.38;;;;;;;10.23;56.87;102064.75;4960413;28;20067;-80
2022/05/20 02:51:34;;;;;;;9.23;4.13;;;;;;;10.13;57.29;102069.31;4963791;28;20560;-78
2022/05/20 02:53:59;;;;;;;9.20;4.35;;;;;;;10.10;57.33;102069.38;4944826;28;20101;-78
2022/05/20 02:56:25;;;;;;;9.40;4.75;;;;;;;10.09;56.89;102072.00;4964241;28;20033;-79
2022/05/20 03:04:20;;;;;;;6.47;3.60;;;;;;;10.04;56.52;102066.88;4975134;28;20430;-79
2022/05/20 03:06:51;;;;;;;7.53;3.85;;;;;;;10.13;56.81;102074.53;4975713;28;20039;-78
2022/05/20 03:09:21;;;;;;;7.05;3.25;;;;;;;10.13;56.27;102058.84;4963685;28;20110;-78
2022/05/20 03:11:47;;;;;;;6.25;4.28;;;;;;;10.07;56.44;102058.97;4964662;28;20031;-77
2022/05/20 03:14:16;;;;;;;9.13;4.63;;;;;;;9.97;56.79;102058.28;4949250;28;20505;-75
2022/05/20 03:16:42;;;;;;;9.68;4.88;;;;;;;10.13;56.23;102068.47;4963917;28;20027;-79
2022/05/20 03:19:08;;;;;;;6.13;4.68;;;;;;;10.01;56.27;102067.81;4946671;28;20075;-77
2022/05/20 03:21:36;;;;;;;14.85;5.35;;;;;;;9.90;56.35;102068.88;4976694;28;20038;-79
2022/05/20 03:24:03;;;;;;;10.32;3.97;;;;;;;9.97;56.31;102065.28;4945655;28;20054;-77
2022/05/20 03:26:29;;;;;;;12.65;4.18;;;;;;;9.88;56.49;102073.25;4951540;28;20255;-77
2022/05/20 03:28:57;;;;;;;8.27;4.20;;;;;;;9.87;56.35;102072.41;4944094;28;20034;-78
2022/05/20 03:31:23;;;;;;;11.00;5.60;;;;;;;9.84;56.89;102062.00;4965611;28;20677;-81
2022/05/20 03:33:48;;;;;;;8.57;3.92;;;;;;;10.00;57.00;102068.66;4963671;28;20054;-77
2022/05/20 03:36:14;;;;;;;9.63;4.43;;;;;;;10.06;56.68;102061.59;4973482;28;20026;-79
2022/05/20 03:38:39;;;;;;;11.55;5.00;;;;;;;10.06;57.08;102066.81;4949838;28;20130;-79
2022/05/20 03:41:05;;;;;;;5.65;3.88;;;;;;;10.18;56.79;102067.47;4968101;28;20122;-78
2022/05/20 03:43:33;;;;;;;8.48;4.20;;;;;;;10.35;56.58;102055.84;4961614;28;20161;-78
2022/05/20 03:45:59;;;;;;;6.63;4.50;;;;;;;10.35;56.28;102054.06;4969300;28;20434;-80
2022/05/20 03:48:25;;;;;;;7.30;4.70;;;;;;;10.40;56.62;102064.44;4961807;28;20509;-77
2022/05/20 03:50:50;;;;;;;6.70;5.00;;;;;;;10.11;56.82;102055.41;4962723;28;20066;-79
2022/05/20 03:53:16;;;;;;;6.97;4.63;;;;;;;10.41;56.09;102053.97;4943762;28;20122;-79
2022/05/20 03:55:42;;;;;;;9.90;4.57;;;;;;;10.54;55.98;102056.31;4958418;28;20097;-78
2022/05/20 03:58:07;;;;;;;8.82;4.10;;;;;;;10.53;56.05;102044.13;4941738;28;20039;-79
2022/05/20 04:01:56;;;;;;;7.43;3.90;;;;;;;10.54;55.94;102053.69;4963243;28;20853;-79
2022/05/20 04:03:19;;;;;;;9.27;4.45;;;;;;;10.59;55.39;102059.66;4959548;28;20034;-79
2022/05/20 04:05:45;;;;;;;6.20;4.10;;;;;;;10.61;55.87;102071.81;4947134;28;20034;-80
2022/05/20 04:08:10;;;;;;;9.93;4.28;;;;;;;10.70;55.58;102077.75;4946564;28;20050;-80
2022/05/20 04:10:37;;;;;;;12.02;4.25;;;;;;;10.53;54.96;102073.75;4962042;28;20115;-76
2022/05/20 04:13:02;;;;;;;6.75;3.63;;;;;;;10.61;55.42;102076.19;4959624;28;20348;-76
2022/05/20 04:15:28;;;;;;;7.68;4.55;;;;;;;10.43;55.90;102093.13;4960803;28;20497;-76
2022/05/20 04:17:53;;;;;;;4.80;3.88;;;;;;;10.53;55.36;102096.41;4975400;28;20046;-79
2022/05/20 04:20:19;;;;;;;5.82;3.50;;;;;;;10.55;55.43;102098.09;4960512;28;20063;-78
2022/05/20 04:22:45;;;;;;;7.43;4.40;;;;;;;10.62;55.12;102099.69;4965622;28;20093;-79
2022/05/20 04:25:11;;;;;;;8.38;3.63;;;;;;;10.75;55.27;102096.81;4956306;28;20045;-79
2022/05/20 04:27:38;;;;;;;4.22;3.75;;;;;;;10.55;55.42;102098.09;4954459;28;20049;-78
2022/05/20 04:30:05;;;;;;;6.45;4.10;;;;;;;10.61;55.39;102097.97;4959298;28;20034;-77
2022/05/20 04:32:31;;;;;;;8.45;3.50;;;;;;;10.59;55.40;102109.34;4944347;28;20035;-79
2022/05/20 04:34:56;;;;;;;4.88;3.33;;;;;;;10.78;55.04;102113.31;4964337;28;20030;-78
2022/05/20 04:37:23;;;;;;;5.40;3.92;;;;;;;10.88;55.11;102121.84;4972694;28;22510;-78
2022/05/20 04:39:49;;;;;;;4.75;3.60;;;;;;;10.94;54.78;102116.47;4972129;28;20057;-77
2022/05/20 04:47:44;;;;;;;7.18;3.58;;;;;;;11.29;54.45;102121.84;4953713;28;20054;-80
2022/05/20 04:50:10;;;;;;;8.90;3.83;;;;;;;11.52;54.00;102123.91;4947801;28;20033;-77
2022/05/20 04:52:35;;;;;;;4.18;3.55;;;;;;;12.14;53.54;102128.50;4949627;28;20047;-79
2022/05/20 04:55:01;;;;;;;10.65;3.88;;;;;;;13.17;49.97;102133.44;4963683;28;20509;-79
2022/05/20 04:57:29;;;;;;;6.53;3.75;;;;;;;13.90;48.05;102127.59;4961084;28;20033;-78
2022/05/20 05:00:11;;;;;;;7.88;3.55;;;;;;;14.53;46.82;102134.13;4958165;28;20055;-76
2022/05/20 05:02:37;;;;;;;6.43;2.88;;;;;;;15.81;45.17;102137.03;4959174;28;20057;-81
2022/05/20 05:05:05;;;;;;;8.70;2.58;;;;;;;16.11;44.56;102139.31;4975322;28;20030;-78
2022/05/20 05:07:30;;;;;;;4.57;3.83;;;;;;;15.91;41.45;102140.16;4943828;28;20066;-78
2022/05/20 05:09:56;;;;;;;5.70;3.30;;;;;;;15.35;42.21;102136.31;4958568;28;20066;-79
2022/05/20 05:12:23;;;;;;;4.78;3.25;;;;;;;15.00;44.77;102137.66;4960414;28;20034;-78
2022/05/20 05:14:51;;;;;;;7.05;3.05;;;;;;;14.98;43.88;102132.44;4942647;28;20031;-80
2022/05/20 05:20:06;;;;;;;6.05;3.70;;;;;;;14.56;45.17;102151.56;4974539;28;20121;-75
2022/05/20 05:22:32;;;;;;;7.88;3.30;;;;;;;14.24;45.27;102147.44;4957963;28;22915;-79
2022/05/20 05:24:57;;;;;;;8.50;2.85;;;;;;;14.39;46.11;102139.00;4956008;28;20121;-77
2022/05/20 05:27:23;;;;;;;12.07;3.92;;;;;;;14.40;45.96;102145.97;4943613;28;20027;-79
2022/05/20 05:29:49;;;;;;;8.07;3.15;;;;;;;14.42;44.71;102156.47;4947569;28;20641;-79
2022/05/20 05:32:14;;;;;;;6.93;2.53;;;;;;;15.12;44.77;102151.19;4971072;28;20027;-80
2022/05/20 05:34:39;;;;;;;8.52;3.28;;;;;;;16.07;41.82;102153.56;4947407;28;20473;-80
2022/05/20 05:37:05;;;;;;;4.75;2.67;;;;;;;17.65;39.54;102151.56;4944872;28;20042;-80
2022/05/20 05:39:31;;;;;;;5.28;2.63;;;;;;;18.55;37.48;102153.13;4946249;28;20062;-76
2022/05/20 05:42:01;;;;;;;9.18;3.08;;;;;;;18.66;37.64;102150.75;4965336;28;21266;-79
2022/05/20 05:44:26;;;;;;;8.07;2.72;;;;;;;18.87;35.04;102152.22;4953382;28;20039;-80
2022/05/20 05:46:52;;;;;;;4.10;2.13;;;;;;;18.75;35.98;102155.53;4971254;28;20042;-77
2022/05/20 05:49:17;;;;;;;7.15;3.00;;;;;;;18.83;36.65;102150.69;4954251;28;20062;-80
2022/05/20 05:51:44;;;;;;;5.03;2.25;;;;;;;19.98;35.68;102145.91;4958776;28;20524;-79
2022/05/20 05:54:10;;;;;;;10.25;2.65;;;;;;;21.74;30.63;102148.97;4944043;28;20046;-80
2022/05/20 05:56:36;;;;;;;4.78;2.30;;;;;;;22.50;30.51;102142.81;4955731;28;20054;-76
2022/05/20 05:59:03;;;;;;;4.05;1.80;;;;;;;23.96;28.67;102133.88;4940605;28;20043;-78
2022/05/20 06:01:29;;;;;;;6.07;2.03;;;;;;;24.46;27.95;102137.09;4972174;28;20557;-78
2022/05/20 06:03:55;;;;;;;3.10;1.92;;;;;;;24.89;25.94;102146.97;4944525;28;20032;-79
2022/05/20 06:06:20;;;;;;;5.05;1.63;;;;;;;25.62;24.74;102141.88;4943613;28;20122;-78
2022/05/20 06:08:46;;;;;;;6.47;1.80;;;;;;;24.90;25.68;102146.00;4961253;28;20049;-78
2022/05/20 06:11:13;;;;;;;2.92;1.67;;;;;;;25.53;24.67;102142.66;4959121;28;20045;-78
2022/05/20 06:13:39;;;;;;;6.03;1.23;;;;;;;26.85;24.20;102142.75;4959947;28;20053;-79
2022/05/20 06:16:05;;;;;;;4.50;1.98;;;;;;;26.04;23.97;102161.44;4963632;28;20030;-75
2022/05/20 06:18:31;;;;;;;3.90;2.42;;;;;;;22.48;29.40;102170.53;4938959;28;20089;-78
2022/05/20 06:20:58;;;;;;;5.30;2.22;;;;;;;20.10;32.07;102176.16;4955740;28;21134;-81
2022/05/20 06:23:24;;;;;;;8.85;2.15;;;;;;;19.42;33.62;102172.13;4954297;28;20075;-81
2022/05/20 06:25:51;;;;;;;5.82;2.45;;;;;;;19.09;34.28;102172.25;4954070;28;20042;-79
2022/05/20 06:28:18;;;;;;;4.40;1.65;;;;;;;20.79;33.43;102147.16;4951463;28;21187;-81
2022/05/20 06:30:45;;;;;;;5.65;2.50;;;;;;;22.98;29.78;102155.41;4960361;28;20062;-79
2022/05/20 06:33:12;;;;;;;4.20;2.00;;;;;;;21.94;28.77;102150.28;4938997;28;20125;-78
2022/05/20 06:41:07;;;;;;;6.68;2.40;;;;;;;22.65;30.36;102151.53;4969749;28;20146;-80
2022/05/20 06:43:33;;;;;;;3.92;1.10;;;;;;;23.90;26.58;102142.34;4950667;28;20149;-77
2022/05/20 06:46:02;;;;;;;7.72;1.80;;;;;;;21.46;30.71;102155.25;4955643;28;20089;-77
2022/05/20 06:48:53;;;;;;;9.88;2.95;;;;;;;18.81;33.03;102149.91;4955624;28;20034;-82
2022/05/20 06:51:25;;;;;;;11.43;1.50;;;;;;;17.76;36.07;102157.16;4967939;28;20508;-81
2022/05/20 06:53:52;;;;;;;3.90;1.20;;;;;;;17.02;36.18;102146.63;4971297;28;20148;-79
2022/05/20 06:56:19;;;;;;;4.22;1.02;;;;;;;17.71;37.27;102140.66;4959298;28;20066;-82
2022/05/20 06:58:45;;;;;;;5.82;0.85;;;;;;;21.90;31.79;102138.13;4955703;28;20035;-78
2022/05/20 07:01:12;;;;;;;9.90;1.20;;;;;;;23.72;25.68;102133.91;4972923;28;20038;-80
2022/05/20 07:03:38;;;;;;;6.95;0.82;;;;;;;22.61;26.82;102134.06;4957451;28;20095;-81
2022/05/20 07:06:05;;;;;;;3.60;0.80;;;;;;;22.70;27.43;102124.59;4963409;28;20469;-79
2022/05/20 07:08:31;;;;;;;14.05;2.65;;;;;;;24.03;24.57;102116.41;4943712;28;20035;-81
2022/05/20 07:10:57;;;;;;;9.52;1.55;;;;;;;24.54;25.48;102105.25;4958303;28;20729;-79
2022/05/20 07:13:23;;;;;;;4.60;0.77;;;;;;;25.57;22.67;102101.28;4938172;28;20101;-79
2022/05/20 07:15:49;;;;;;;3.45;0.60;;;;;;;25.07;22.63;102107.22;4936799;28;20110;-77
2022/05/20 07:18:14;;;;;;;5.78;0.60;;;;;;;25.85;22.75;102103.28;4956175;28;20604;-81
2022/05/20 07:20:41;;;;;;;4.72;0.50;;;;;;;23.15;24.68;102095.50;4958039;28;20126;-78
2022/05/20 07:23:06;;;;;;;4.63;0.40;;;;;;;21.02;28.37;102119.13;4966190;28;20081;-80
2022/05/20 07:25:33;;;;;;;4.13;0.35;;;;;;;19.91;28.93;102132.16;4951042;28;20114;-78
2022/05/20 07:28:00;;;;;;;6.90;0.93;;;;;;;18.97;30.67;102118.16;4949266;28;20050;-79
2022/05/20 07:30:26;;;;;;;8.02;1.30;;;;;;;19.55;31.31;102113.06;4954759;28;20104;-79
2022/05/20 07:32:52;;;;;;;5.10;1.35;;;;;;;21.82;28.18;102100.53;4936413;28;20046;-78
2022/05/20 07:35:18;;;;;;;5.00;1.27;;;;;;;23.74;25.44;102108.78;4968498;28;20410;-78
2022/05/20 07:37:43;;;;;;;4.07;0.90;;;;;;;22.82;26.30;102098.84;4958995;28;20352;-80
2022/05/20 07:40:09;;;;;;;4.75;1.33;;;;;;;22.12;27.64;102090.47;4955505;28;20234;-77
2022/05/20 07:42:35;;;;;;;4.72;0.98;;;;;;;20.73;28.97;102095.31;4965839;28;20043;-77
2022/05/20 07:45:01;;;;;;;6.53;1.60;;;;;;;21.75;28.50;102089.47;4950473;28;20043;-78
2022/05/20 07:47:28;;;;;;;4.40;0.82;;;;;;;22.80;26.01;102096.28;4953974;28;20071;-78
2022/05/20 07:49:54;;;;;;;2.15;0.35;;;;;;;22.92;25.48;102090.06;4968250;28;20113;-78
2022/05/20 07:55:06;;;;;;;2.78;0.73;;;;;;;23.48;24.85;102088.63;4956737;28;20477;-78
2022/05/20 07:57:32;;;;;;;3.55;0.77;;;;;;;23.60;23.94;102083.19;4959154;28;20526;-78
2022/05/20 07:59:58;;;;;;;3.30;1.05;;;;;;;24.49;24.34;102077.22;4953526;28;20218;-80
2022/05/20 08:02:27;;;;;;;2.60;0.60;;;;;;;24.43;23.79;102068.69;4942801;28;20070;-80
2022/05/20 08:05:01;;;;;;;2.05;0.45;;;;;;;25.40;23.05;102074.09;4966048;28;20082;-79
2022/05/20 08:07:40;;;;;;;10.65;0.55;;;;;;;25.20;21.21;102074.94;4928506;28;20066;-77
2022/05/20 08:10:09;;;;;;;2.45;0.80;;;;;;;26.80;20.91;102064.53;4966382;28;20640;-78
2022/05/20 08:12:35;;;;;;;4.05;0.95;;;;;;;26.17;22.14;102056.78;4952822;28;20113;-76
2022/05/20 08:15:01;;;;;;;5.80;1.05;;;;;;;27.87;20.78;102056.34;4956027;28;20125;-77
2022/05/20 08:17:26;;;;;;;2.83;0.68;;;;;;;27.41;20.40;102047.31;4966637;28;20027;-78
2022/05/20 08:19:54;;;;;;;4.57;1.02;;;;;;;27.84;19.67;102047.75;4957426;28;20333;-79
2022/05/20 08:22:24;;;;;;;6.10;0.63;;;;;;;30.53;17.30;102041.97;4933441;28;20031;-78
2022/05/20 08:24:57;;;;;;;3.67;1.07;;;;;;;26.78;19.97;102045.09;4937279;28;20564;-75
2022/05/20 08:27:25;;;;;;;2.85;0.38;;;;;;;24.23;22.52;102051.56;4952138;28;20090;-80
2022/05/20 08:29:51;;;;;;;2.63;0.60;;;;;;;24.31;21.84;102047.44;4955841;28;20219;-79
2022/05/20 08:32:17;;;;;;;4.90;0.50;;;;;;;25.72;21.74;102037.53;4939577;28;20042;-81
2022/05/20 08:34:44;;;;;;;4.85;0.90;;;;;;;27.23;20.15;102035.63;4935181;28;20079;-79
2022/05/20 08:37:10;;;;;;;4.57;0.73;;;;;;;28.06;21.55;102038.47;4933886;28;20049;-79
2022/05/20 08:39:36;;;;;;;2.28;0.45;;;;;;;28.74;19.42;102036.22;4966430;28;20047;-79
2022/05/20 08:42:02;;;;;;;2.83;0.50;;;;;;;27.86;19.83;102037.72;4962207;28;20525;-79
2022/05/20 08:44:29;;;;;;;5.15;0.65;;;;;;;26.43;20.08;102029.50;4961993;28;20488;-79
2022/05/20 08:47:12;;;;;;;2.03;0.40;;;;;;;24.17;23.00;102035.22;4948175;28;20035;-78
2022/05/20 08:49:39;;;;;;;2.25;0.47;;;;;;;22.81;25.36;102031.38;4947027;28;20388;-78
2022/05/20 08:52:05;;;;;;;3.72;0.60;;;;;;;24.37;23.70;102028.22;4938154;28;20497;-78
2022/05/20 08:54:31;;;;;;;3.47;0.70;;;;;;;26.59;21.56;102021.75;4953475;28;20069;-78
2022/05/20 08:56:58;;;;;;;2.70;0.60;;;;;;;27.04;20.72;102017.66;4946555;28;20687;-80
2022/05/20 08:59:23;;;;;;;1.25;0.82;;;;;;;28.22;19.12;102019.03;4951949;28;20043;-79
2022/05/20 09:01:51;;;;;;;6.72;0.82;;;;;;;26.82;20.95;102025.00;4948101;28;20023;-79
2022/05/20 09:04:21;;;;;;;3.15;0.73;;;;;;;24.87;23.05;102025.94;4948489;28;20042;-80
2022/05/20 09:07:04;;;;;;;4.97;0.57;;;;;;;26.16;22.31;102020.25;4955426;28;20144;-79
2022/05/20 09:09:41;;;;;;;1.45;0.30;;;;;;;26.04;21.63;102007.91;4948447;28;20046;-78
2022/05/20 09:12:07;;;;;;;2.60;0.55;;;;;;;26.48;21.08;102011.97;4954670;28;20066;-77
2022/05/20 09:17:23;;;;;;;2.97;0.60;;;;;;;25.20;21.69;102002.72;4967936;28;20430;-78
2022/05/20 09:20:05;;;;;;;1.63;0.35;;;;;;;24.93;21.43;102000.50;4953384;28;20047;-78
2022/05/20 09:22:37;;;;;;;6.75;1.02;;;;;;;25.40;22.75;101996.50;4937875;28;20177;-79
2022/05/20 09:25:14;;;;;;;1.80;0.52;;;;;;;25.31;22.62;102005.31;4966671;28;20031;-78
2022/05/20 09:27:40;;;;;;;4.68;1.15;;;;;;;23.38;24.71;102001.28;4949044;28;20122;-78
2022/05/20 09:30:09;;;;;;;3.00;0.68;;;;;;;22.25;25.80;101999.03;4953593;28;20045;-78
2022/05/20 09:32:35;;;;;;;2.10;0.93;;;;;;;21.84;26.55;101989.53;4935581;28;20043;-78
2022/05/20 09:35:05;;;;;;;2.55;1.15;;;;;;;22.54;27.39;101992.47;4971625;28;20046;-77
2022/05/20 09:37:34;;;;;;;3.95;0.60;;;;;;;24.02;25.09;101983.88;4955931;28;20031;-78
2022/05/20 09:40:17;;;;;;;4.32;0.82;;;;;;;23.44;25.59;101983.13;4968571;28;20329;-77
2022/05/20 09:43:00;;;;;;;2.85;0.60;;;;;;;23.88;25.20;101984.09;4955376;28;20635;-80
2022/05/20 09:45:47;;;;;;;3.42;1.38;;;;;;;23.07;26.49;101976.06;4936227;28;20126;-76
2022/05/20 09:48:33;;;;;;;3.35;0.90;;;;;;;23.40;26.71;101970.00;4969640;28;20035;-78
2022/05/20 09:51:10;;;;;;;4.43;1.77;;;;;;;22.35;27.42;101971.63;4958590;28;20078;-80
2022/05/20 09:53:39;;;;;;;3.70;1.40;;;;;;;22.83;28.18;101967.28;4957914;28;20043;-78
2022/05/20 09:56:33;;;;;;;6.00;1.58;;;;;;;22.39;27.19;101959.78;4938674;28;20039;-79
2022/05/20 09:59:21;;;;;;;4.10;1.92;;;;;;;21.99;27.80;101961.81;4936431;28;20074;-79
2022/05/20 10:02:04;;;;;;;4.30;1.42;;;;;;;22.93;28.51;101969.13;4955977;28;20023;-80
2022/05/20 10:04:57;;;;;;;3.10;1.38;;;;;;;22.02;28.12;101972.22;4950324;28;20520;-78
2022/05/20 10:07:36;;;;;;;2.67;1.20;;;;;;;21.88;26.91;101954.59;4930369;28;20189;-78
2022/05/20 10:10:11;;;;;;;4.22;1.58;;;;;;;22.19;28.40;101947.09;4956875;28;20039;-78
2022/05/20 10:12:39;;;;;;;2.80;1.08;;;;;;;22.05;27.39;101945.41;4939247;28;20546;-77
2022/05/20 10:15:24;;;;;;;2.13;0.85;;;;;;;22.54;26.14;101936.50;4956874;28;20049;-80
2022/05/20 10:17:58;;;;;;;4.28;1.38;;;;;;;22.86;26.55;101930.59;4957711;28;20062;-76
2022/05/20 10:20:36;;;;;;;5.88;1.00;;;;;;;22.78;26.51;101935.66;4954600;28;20553;-78
2022/05/20 10:23:32;;;;;;;4.43;0.90;;;;;;;22.91;25.85;101927.56;4966243;28;20043;-79
2022/05/20 10:26:14;;;;;;;2.88;0.80;;;;;;;23.75;25.91;101923.69;4955710;28;20042;-77
2022/05/20 10:34:32;;;;;;;2.37;1.17;;;;;;;23.88;24.86;101920.91;4972279;28;20042;-77
2022/05/20 10:37:04;;;;;;;2.42;0.98;;;;;;;22.75;25.66;101922.56;4948343;28;20289;-79
2022/05/20 10:39:57;;;;;;;4.57;0.82;;;;;;;22.57;26.75;101911.44;4956144;28;20039;-80
2022/05/20 10:42:37;;;;;;;3.13;1.30;;;;;;;21.97;27.46;101895.38;4956719;28;20027;-78
2022/05/20 10:48:36;;;;;;;3.13;1.42;;;;;;;22.42;27.08;101875.31;4950395;28;20086;-79
2022/05/20 10:51:40;;;;;;;4.28;1.55;;;;;;;23.24;26.58;101860.13;4961192;28;20101;-80
2022/05/20 10:54:08;;;;;;;4.18;1.20;;;;;;;23.06;25.96;101851.75;4949482;28;20062;-75
2022/05/20 10:56:40;;;;;;;4.00;1.27;;;;;;;22.72;25.54;101853.53;4963810;28;20658;-77
2022/05/20 10:59:10;;;;;;;;;;;;;;;22.17;25.89;101855.84;4966330;28;20096;-77
2022/05/20 11:01:44;;;;;;;2.42;0.90;;;;;;;22.65;26.17;101857.56;4959391;28;20250;-77
2022/05/20 11:04:12;;;;;;;1.50;0.70;;;;;;;22.34;25.64;101850.09;4968668;28;20047;-77
2022/05/20 11:06:47;;;;;;;2.60;1.30;;;;;;;22.21;24.99;101849.31;4957301;28;20125;-78
2022/05/20 11:09:24;;;;;;;1.63;0.80;;;;;;;21.78;26.03;101841.81;4955133;28;20067;-78
2022/05/20 11:12:00;;;;;;;2.25;1.27;;;;;;;22.15;26.56;101845.28;4953234;28;20537;-75
2022/05/20 11:14:43;;;;;;;5.00;1.40;;;;;;;21.53;27.01;101838.28;4952386;28;20069;-78
2022/05/20 11:17:28;;;;;;;5.72;1.67;;;;;;;21.88;27.84;101826.00;4963607;28;20059;-79
2022/05/20 11:20:03;;;;;;;3.08;1.60;;;;;;;21.90;26.93;101818.78;4950621;28;20058;-79
2022/05/20 11:22:47;;;;;;;2.88;1.27;;;;;;;21.96;27.36;101810.34;4967631;28;20593;-78
2022/05/20 11:25:22;;;;;;;3.88;1.58;;;;;;;22.22;26.17;101805.75;4962804;28;20043;-78
2022/05/20 11:28:18;;;;;;;4.57;1.10;;;;;;;21.85;26.08;101799.63;4954295;28;20050;-75
2022/05/20 11:31:14;;;;;;;2.63;1.23;;;;;;;21.50;26.94;101789.75;4953594;28;20035;-78
2022/05/20 11:33:50;;;;;;;3.50;0.98;;;;;;;22.73;27.70;101781.44;4948360;28;20125;-76
2022/05/20 11:36:49;;;;;;;4.70;1.00;;;;;;;23.62;25.35;101773.53;4955052;28;20568;-78
2022/05/20 11:39:26;;;;;;;5.00;0.90;;;;;;;23.30;24.32;101769.00;4955261;28;20356;-79
2022/05/20 11:42:03;;;;;;;6.22;1.48;;;;;;;22.96;25.04;101781.44;4967912;28;20110;-79
2022/05/20 11:45:09;;;;;;;1.52;1.05;;;;;;;23.06;25.23;101771.75;4983877;28;20057;-76
2022/05/20 11:47:53;;;;;;;6.38;1.33;;;;;;;23.06;24.71;101749.59;4968155;28;20446;-77
2022/05/20 11:51:02;;;;;;;2.28;1.08;;;;;;;23.34;25.33;101749.09;4939345;28;20457;-77
2022/05/20 11:53:38;;;;;;;4.97;1.42;;;;;;;22.86;24.94;101725.38;4956456;28;20038;-80
2022/05/20 11:56:31;;;;;;;2.10;0.73;;;;;;;22.99;25.79;101720.75;4960305;28;20034;-75
2022/05/20 11:59:26;;;;;;;2.03;1.25;;;;;;;22.53;24.14;101723.50;4959983;28;20054;-78
2022/05/20 12:01:57;;;;;;;1.90;1.00;;;;;;;22.35;26.22;101713.31;4950059;28;20114;-79
2022/05/20 12:04:27;;;;;;;1.67;0.98;;;;;;;22.36;25.24;101720.34;4956395;28;20452;-78
2022/05/20 12:07:01;;;;;;;5.10;1.27;;;;;;;22.82;25.07;101712.41;4945947;28;20031;-80
2022/05/20 12:09:30;;;;;;;6.35;2.03;;;;;;;22.66;25.13;101702.09;4954709;28;20093;-79
2022/05/20 12:12:21;;;;;;;3.05;0.88;;;;;;;22.64;25.29;101688.03;4969660;28;20043;-76
2022/05/20 12:15:05;;;;;;;4.18;1.02;;;;;;;22.52;25.08;101681.88;4953995;28;20149;-78
2022/05/20 12:17:39;;;;;;;4.75;1.23;;;;;;;22.90;25.87;101691.34;4962789;28;20534;-78